South Greenfield, Missouri
Current Conditions -  °F | °C
As of 2:52 PM on Friday 19 Dec 2014 (Local Time) from KSGF Reporting Station
Overcast Overcast  
Wind Chill: 40°   Ceiling: 900
Heat Index: 40°   Visibility: 8mi
Dew Point: 35°   Wind: 3mph
Humidity: 83%   Direction: 100°E
Pressure: 30.17"   Gusts: NA
Location:  37.38°N, 93.84°W
Report Text: KSGF 192052Z 10003KT 8SM OVC009 04/02 A3017 RMK AO2 RAB28E43 SLP223 P0000 60000 T00440017 56021
Loading
Personal Weather Stations






























Interactive Weather Map New forecast layout! Learn more

10-Day Weather Forecast

Advertisements
Track Severe Weather on mobile